Portada
METAR-TAF:

METAR-TAF

Aeropuertos :

Såtenäs, Suecia

latitud: 58-26N, longitud: 012-42E, altitud: 54 m

Observación

El informe se hizo hace 26 minutos, a las 13:50 UTC
Viento 9 kt del norte-noroeste
Temperatura 6°C
Humedad 52%
Presión 1027 hPa
Visibilidad 10 km o más
sin nubes por debajo de 1500 m y sin presencia de cumulonimbus.

METAR: ESIB 221350Z 33009KT CAVOK 06/M03 Q1027

Hora: 15:16 (14:16 UTC)

Pronóstico

El informe se hizo hace 3 horas y 16 minutos, a las 11:00 UTC
Pronóstico válido del 22 a las 12 UTC al 22 a las 16 UTC
Viento 11 kt del oeste-noroeste
Visibilidad 10 km o más
sin nubes por debajo de 1500 m y sin presencia de cumulonimbus.

TAF: ESIB 221100Z 2212/2216 29011KT CAVOK RMK MIL

Observaciones y pronósticos meteorológicos de más de 4000 aeropuertos (mensajes METAR y TAF).

Los puntos amarillos y rojos representan las estaciones disponibles.

Ponga el ratón en el punto deseado para ver el nombre de la estación.

Haga clic para ver las observaciones y los pronósticos meteorológicos.

Para cambiar el mapa : haga clic en los botones verdes con una cruz de color negro para hacer un zoom, en el botón verde con un guión para alejar o en las flechas verdes para mapas adyacentes.


METAR-TAF: